createdAt,value
2022-11-09T00:01:43.401Z,14.12
2022-11-09T00:04:11.063Z,14.17
2022-11-09T00:06:38.070Z,14.17
2022-11-09T00:09:08.099Z,14.16
2022-11-09T00:11:36.219Z,14.14
2022-11-09T00:14:03.064Z,14.20
2022-11-09T00:16:29.595Z,14.19
2022-11-09T00:18:56.305Z,14.12
2022-11-09T00:21:24.947Z,14.10
2022-11-09T00:23:52.701Z,14.10
2022-11-09T00:26:20.658Z,14.13
2022-11-09T00:28:47.756Z,14.14
2022-11-09T00:31:20.554Z,14.18
2022-11-09T00:33:52.126Z,14.16
2022-11-09T00:36:20.987Z,14.12
2022-11-09T00:38:52.891Z,14.06
2022-11-09T00:41:20.183Z,14.09
2022-11-09T00:43:47.783Z,14.22
2022-11-09T00:46:15.336Z,14.10
2022-11-09T00:48:42.121Z,14.13
2022-11-09T00:51:09.423Z,14.13
2022-11-09T00:53:36.207Z,14.15
2022-11-09T00:56:08.814Z,14.14
2022-11-09T00:58:38.359Z,14.07
2022-11-09T01:01:17.371Z,14.12
2022-11-09T01:03:45.241Z,14.07
2022-11-09T01:06:24.024Z,14.08
2022-11-09T01:08:51.228Z,14.07
2022-11-09T01:11:19.491Z,13.99
2022-11-09T01:13:46.601Z,14.05
2022-11-09T01:16:16.458Z,14.00
2022-11-09T01:18:43.428Z,13.91
2022-11-09T01:21:13.286Z,13.90
2022-11-09T01:23:40.629Z,13.89
2022-11-09T01:26:09.782Z,13.89
2022-11-09T01:28:36.945Z,13.81
2022-11-09T01:31:10.613Z,13.88
2022-11-09T01:33:37.120Z,13.92
2022-11-09T01:36:09.086Z,13.87
2022-11-09T01:38:37.922Z,13.87
2022-11-09T01:41:06.805Z,13.87
2022-11-09T01:43:33.730Z,13.81
2022-11-09T01:46:26.123Z,13.80
2022-11-09T01:48:55.516Z,13.79
2022-11-09T01:51:36.746Z,13.75
2022-11-09T01:54:27.595Z,13.74
2022-11-09T01:56:59.861Z,13.71
2022-11-09T01:59:32.006Z,13.70
2022-11-09T02:02:00.794Z,13.62
2022-11-09T02:04:33.771Z,13.51
2022-11-09T02:07:00.746Z,13.52
2022-11-09T02:09:39.366Z,13.51
2022-11-09T02:12:07.321Z,13.42
2022-11-09T02:14:36.485Z,13.34
2022-11-09T02:17:03.326Z,13.33
2022-11-09T02:19:30.075Z,13.31
2022-11-09T02:21:57.155Z,13.30
2022-11-09T02:24:23.758Z,13.30
2022-11-09T02:26:52.656Z,13.23
2022-11-09T02:29:23.854Z,13.20
2022-11-09T02:31:54.629Z,13.21
2022-11-09T02:34:22.302Z,13.07
2022-11-09T02:36:48.955Z,13.10
2022-11-09T02:39:18.827Z,13.17
2022-11-09T02:41:51.779Z,13.13
2022-11-09T02:44:19.016Z,13.01
2022-11-09T02:46:46.261Z,12.86
2022-11-09T02:49:12.956Z,12.91
2022-11-09T02:51:39.622Z,12.89
2022-11-09T02:54:06.388Z,13.01
2022-11-09T02:56:33.115Z,12.94
2022-11-09T02:58:59.733Z,12.96
2022-11-09T03:01:26.450Z,12.98
2022-11-09T03:03:53.084Z,13.00
2022-11-09T03:06:19.774Z,13.07
2022-11-09T03:08:46.639Z,12.99
2022-11-09T03:11:13.183Z,13.06
2022-11-09T03:13:39.881Z,13.04
2022-11-09T03:16:07.484Z,13.08
2022-11-09T03:18:34.173Z,13.12
2022-11-09T03:21:02.316Z,13.02
2022-11-09T03:23:29.382Z,13.04
2022-11-09T03:25:56.050Z,12.93
2022-11-09T03:28:22.770Z,12.82
2022-11-09T03:30:49.467Z,12.71
2022-11-09T03:33:16.270Z,12.53
2022-11-09T03:35:43.983Z,12.42
2022-11-09T03:38:10.735Z,12.30
2022-11-09T03:40:37.530Z,12.11
2022-11-09T03:43:04.196Z,11.99
2022-11-09T03:45:30.915Z,11.89
2022-11-09T03:48:00.251Z,11.80
2022-11-09T03:50:28.691Z,11.65
2022-11-09T03:52:55.802Z,11.68
2022-11-09T03:55:22.926Z,11.52
2022-11-09T03:57:49.730Z,11.51
2022-11-09T04:00:19.132Z,11.57
2022-11-09T04:02:45.865Z,11.56
2022-11-09T04:05:13.051Z,11.52
2022-11-09T04:07:40.100Z,11.58
2022-11-09T04:10:07.729Z,11.60
2022-11-09T04:12:34.628Z,11.54
2022-11-09T04:15:01.223Z,11.54
2022-11-09T04:17:27.916Z,11.48
2022-11-09T04:19:54.586Z,11.48
2022-11-09T04:22:21.261Z,11.50
2022-11-09T04:24:47.902Z,11.54
2022-11-09T04:27:14.469Z,11.48
2022-11-09T04:29:41.198Z,11.45
2022-11-09T04:32:07.906Z,11.46
2022-11-09T04:34:34.477Z,11.44
2022-11-09T04:37:02.058Z,11.36
2022-11-09T04:39:28.633Z,11.45
2022-11-09T04:41:55.236Z,11.39
2022-11-09T04:44:21.737Z,11.45
2022-11-09T04:46:48.296Z,11.46
2022-11-09T04:49:14.987Z,11.52
2022-11-09T04:51:41.620Z,11.49
2022-11-09T04:54:08.325Z,11.52
2022-11-09T04:56:35.044Z,11.51
2022-11-09T04:59:02.135Z,11.45
2022-11-09T05:01:28.822Z,11.39
2022-11-09T05:03:55.617Z,11.39
2022-11-09T05:06:34.427Z,11.39
2022-11-09T05:09:04.822Z,11.38
2022-11-09T05:11:32.635Z,11.40
2022-11-09T05:13:59.888Z,11.36
2022-11-09T05:16:26.570Z,11.40
2022-11-09T05:18:53.216Z,11.31
2022-11-09T05:21:19.883Z,11.37
2022-11-09T05:23:59.131Z,11.24
2022-11-09T05:26:37.737Z,11.30
2022-11-09T05:29:07.716Z,11.28
2022-11-09T05:31:34.732Z,11.32
2022-11-09T05:34:01.855Z,11.35
2022-11-09T05:36:29.677Z,11.36
2022-11-09T05:38:56.815Z,11.35
2022-11-09T05:41:24.051Z,11.35
2022-11-09T05:43:50.703Z,11.45
2022-11-09T05:46:18.209Z,11.46
2022-11-09T05:48:45.446Z,11.50
2022-11-09T05:51:14.235Z,11.55
2022-11-09T05:53:45.152Z,11.63
2022-11-09T05:56:13.724Z,11.74
2022-11-09T05:58:41.488Z,11.72
2022-11-09T06:01:11.454Z,11.79
2022-11-09T06:03:38.408Z,11.86
2022-11-09T06:06:08.799Z,11.84
2022-11-09T06:08:36.165Z,11.92
2022-11-09T06:11:09.092Z,11.99
2022-11-09T06:13:36.490Z,11.89
2022-11-09T06:16:05.031Z,11.90
2022-11-09T06:18:33.668Z,11.97
2022-11-09T06:21:02.827Z,11.95
2022-11-09T06:23:30.393Z,11.94
2022-11-09T06:25:57.815Z,11.99
2022-11-09T06:28:24.746Z,12.03
2022-11-09T06:30:51.838Z,12.05
2022-11-09T06:33:18.795Z,12.05
2022-11-09T06:35:45.625Z,12.05
2022-11-09T06:38:12.217Z,12.05
2022-11-09T06:40:39.447Z,12.04
2022-11-09T06:43:06.892Z,12.05
2022-11-09T06:45:34.569Z,12.03
2022-11-09T06:48:03.226Z,12.12
2022-11-09T06:50:32.347Z,12.01
2022-11-09T06:53:04.100Z,12.10
2022-11-09T06:55:32.614Z,12.13
2022-11-09T06:58:00.193Z,12.16
2022-11-09T07:00:28.452Z,12.23
2022-11-09T07:02:55.033Z,12.27
2022-11-09T07:05:21.846Z,12.23
2022-11-09T07:07:48.925Z,12.18
2022-11-09T07:10:16.403Z,12.21
2022-11-09T07:12:43.099Z,12.23
2022-11-09T07:15:11.714Z,12.26
2022-11-09T07:17:39.947Z,12.28
2022-11-09T07:20:08.925Z,12.28
2022-11-09T07:22:39.552Z,12.28
2022-11-09T07:25:11.301Z,12.34
2022-11-09T07:27:37.893Z,12.30
2022-11-09T07:30:05.179Z,12.34
2022-11-09T07:35:23.642Z,12.42
2022-11-09T07:37:50.293Z,12.47
2022-11-09T07:40:17.250Z,12.50
2022-11-09T07:42:43.982Z,12.59
2022-11-09T07:45:11.074Z,12.52
2022-11-09T07:47:37.684Z,12.61
2022-11-09T07:50:04.988Z,12.64
2022-11-09T07:52:31.589Z,12.69
2022-11-09T07:54:58.203Z,12.70
2022-11-09T07:57:24.877Z,12.72
2022-11-09T07:59:53.673Z,12.73
2022-11-09T08:02:20.436Z,12.71
2022-11-09T08:04:47.265Z,12.77
2022-11-09T08:07:13.901Z,12.77
2022-11-09T08:09:40.745Z,12.84
2022-11-09T08:12:07.457Z,12.85
2022-11-09T08:14:34.243Z,12.84
2022-11-09T08:17:02.623Z,12.78
2022-11-09T08:19:29.195Z,12.78
2022-11-09T08:21:58.053Z,12.80
2022-11-09T08:24:24.718Z,12.79
2022-11-09T08:26:51.349Z,12.83
2022-11-09T08:29:17.980Z,12.91
2022-11-09T08:31:44.577Z,12.97
2022-11-09T08:34:14.033Z,12.91
2022-11-09T08:36:40.794Z,12.91
2022-11-09T08:39:07.728Z,13.10
2022-11-09T08:41:34.379Z,13.28
2022-11-09T08:44:00.926Z,13.32
2022-11-09T08:46:27.695Z,13.37
2022-11-09T08:48:54.317Z,13.44
2022-11-09T08:51:20.965Z,13.41
2022-11-09T08:53:47.814Z,13.39
2022-11-09T08:56:18.517Z,13.33
2022-11-09T08:58:46.049Z,13.24
2022-11-09T09:01:16.979Z,13.25
2022-11-09T09:03:44.211Z,13.14
2022-11-09T09:06:10.815Z,13.14
2022-11-09T09:08:37.353Z,13.13
2022-11-09T09:11:05.561Z,13.20
2022-11-09T09:13:33.281Z,13.27
2022-11-09T09:16:13.158Z,13.31
2022-11-09T09:18:39.832Z,13.25
2022-11-09T09:21:08.898Z,13.22
2022-11-09T09:23:35.670Z,13.24
2022-11-09T09:26:02.388Z,13.32
2022-11-09T09:28:28.995Z,13.42
2022-11-09T09:31:00.899Z,13.48
2022-11-09T09:33:28.398Z,13.56
2022-11-09T09:35:57.885Z,13.64
2022-11-09T09:38:25.967Z,13.76
2022-11-09T09:41:00.883Z,13.78
2022-11-09T09:43:41.559Z,13.82
2022-11-09T09:46:35.631Z,13.79
2022-11-09T09:49:14.005Z,13.78
2022-11-09T09:51:51.923Z,13.91
2022-11-09T09:54:22.544Z,13.97
2022-11-09T09:56:50.965Z,14.07
2022-11-09T09:59:29.077Z,14.13
2022-11-09T10:01:57.774Z,14.13
2022-11-09T10:04:41.757Z,14.16
2022-11-09T10:07:18.492Z,14.13
2022-11-09T10:10:12.552Z,14.23
2022-11-09T10:13:17.351Z,14.29
2022-11-09T10:16:01.833Z,14.62
2022-11-09T10:18:46.557Z,14.77
2022-11-09T10:21:34.552Z,14.60
2022-11-09T10:24:18.116Z,14.51
2022-11-09T10:26:50.000Z,14.46
2022-11-09T10:29:25.385Z,14.47
2022-11-09T10:32:00.885Z,14.49
2022-11-09T10:34:38.267Z,14.51
2022-11-09T10:37:13.914Z,14.47
2022-11-09T10:39:47.969Z,14.49
2022-11-09T10:42:14.618Z,14.48
2022-11-09T10:44:41.353Z,14.51
2022-11-09T10:47:11.555Z,14.62
2022-11-09T10:49:39.177Z,14.65
2022-11-09T10:52:26.501Z,14.62
2022-11-09T10:54:53.164Z,14.59
2022-11-09T10:57:24.778Z,14.73
2022-11-09T10:59:54.968Z,14.67
2022-11-09T11:02:24.615Z,14.54
2022-11-09T11:05:12.864Z,14.55
2022-11-09T11:07:39.550Z,14.52
2022-11-09T11:10:24.561Z,14.63
2022-11-09T11:13:00.050Z,14.55
2022-11-09T11:15:38.557Z,14.76
2022-11-09T11:18:15.219Z,14.86
2022-11-09T11:20:41.905Z,14.96
2022-11-09T11:23:11.483Z,15.11
2022-11-09T11:25:53.382Z,15.25
2022-11-09T11:28:28.102Z,15.29
2022-11-09T11:30:55.331Z,15.37
2022-11-09T11:33:24.823Z,15.36
2022-11-09T11:36:09.800Z,15.24
2022-11-09T11:38:41.981Z,15.26
2022-11-09T11:41:30.596Z,15.54
2022-11-09T11:44:08.254Z,15.83
2022-11-09T11:46:54.563Z,16.07
2022-11-09T11:49:21.263Z,16.05
2022-11-09T11:52:07.895Z,16.07
2022-11-09T11:54:42.627Z,16.10
2022-11-09T11:57:34.167Z,16.02
2022-11-09T12:00:15.513Z,15.93
2022-11-09T12:02:57.351Z,15.87
2022-11-09T12:05:48.362Z,15.93
2022-11-09T12:08:25.707Z,15.87
2022-11-09T12:11:36.992Z,15.88
2022-11-09T12:14:26.804Z,15.75
2022-11-09T12:17:03.565Z,15.42
2022-11-09T12:19:52.647Z,15.43
2022-11-09T12:22:38.830Z,15.48
2022-11-09T12:25:27.453Z,15.62
2022-11-09T12:28:05.886Z,15.75
2022-11-09T12:30:48.015Z,15.90
2022-11-09T12:33:34.209Z,16.12
2022-11-09T12:36:12.132Z,16.23
2022-11-09T12:38:58.262Z,15.88
2022-11-09T12:41:30.319Z,15.59
2022-11-09T12:44:04.156Z,15.58
2022-11-09T12:46:40.422Z,15.64
2022-11-09T12:49:22.527Z,15.54
2022-11-09T12:51:49.667Z,15.30
2022-11-09T12:54:16.589Z,15.36
2022-11-09T12:56:57.368Z,15.23
2022-11-09T12:59:26.973Z,15.09
2022-11-09T13:01:59.983Z,15.11
2022-11-09T13:04:27.435Z,15.26
2022-11-09T13:07:09.657Z,15.30
2022-11-09T13:09:44.782Z,15.35
2022-11-09T13:12:27.368Z,15.24
2022-11-09T13:14:55.533Z,15.08
2022-11-09T13:17:25.116Z,15.18
2022-11-09T13:19:54.666Z,15.28
2022-11-09T13:22:21.253Z,15.35
2022-11-09T13:24:59.831Z,15.19
2022-11-09T13:27:46.567Z,15.18
2022-11-09T13:30:40.849Z,15.00
2022-11-09T13:33:07.473Z,15.05
2022-11-09T13:35:40.045Z,15.02
2022-11-09T13:38:28.674Z,15.03
2022-11-09T13:40:57.636Z,14.96
2022-11-09T13:43:33.110Z,15.06
2022-11-09T13:46:03.959Z,14.94
2022-11-09T13:48:36.748Z,14.92
2022-11-09T13:51:13.043Z,14.94
2022-11-09T13:53:39.553Z,14.77
2022-11-09T13:56:27.791Z,14.84
2022-11-09T13:59:09.456Z,14.83
2022-11-09T14:01:49.620Z,14.84
2022-11-09T14:04:31.236Z,14.77
2022-11-09T14:07:05.475Z,14.82
2022-11-09T14:10:16.386Z,14.79
2022-11-09T14:12:45.943Z,14.89
2022-11-09T14:15:34.079Z,14.79
2022-11-09T14:18:20.726Z,14.76
2022-11-09T14:20:53.565Z,14.76
2022-11-09T14:23:22.992Z,14.77
2022-11-09T14:25:49.991Z,14.78
2022-11-09T14:28:23.251Z,14.71
2022-11-09T14:30:50.627Z,14.85
2022-11-09T14:33:29.059Z,14.68
2022-11-09T14:35:58.016Z,14.73
2022-11-09T14:38:34.503Z,14.69
2022-11-09T14:41:02.632Z,14.59
2022-11-09T14:43:45.541Z,14.54
2022-11-09T14:46:19.442Z,14.49
2022-11-09T14:48:54.789Z,14.29
2022-11-09T14:51:32.296Z,14.41
2022-11-09T14:54:01.551Z,14.53
2022-11-09T14:56:30.037Z,14.55
2022-11-09T14:58:58.266Z,14.55
2022-11-09T15:01:27.124Z,14.48
2022-11-09T15:04:07.280Z,14.38
2022-11-09T15:06:34.967Z,14.27
2022-11-09T15:09:09.150Z,14.34
2022-11-09T15:11:41.179Z,14.41
2022-11-09T15:14:19.728Z,14.34
2022-11-09T15:16:48.229Z,14.17
2022-11-09T15:19:29.597Z,14.14
2022-11-09T15:21:59.898Z,14.12
2022-11-09T15:24:30.137Z,14.17
2022-11-09T15:26:57.710Z,14.02
2022-11-09T15:29:36.887Z,14.09
2022-11-09T15:32:19.701Z,14.01
2022-11-09T15:34:54.203Z,13.94
2022-11-09T15:37:47.003Z,13.72
2022-11-09T15:40:24.938Z,13.77
2022-11-09T15:42:52.383Z,13.84
2022-11-09T15:45:20.815Z,13.77
2022-11-09T15:47:56.699Z,13.63
2022-11-09T15:50:26.934Z,13.55
2022-11-09T15:52:53.685Z,13.47
2022-11-09T15:55:23.275Z,13.44
2022-11-09T15:57:52.662Z,13.38
2022-11-09T16:00:21.425Z,13.39
2022-11-09T16:02:49.030Z,13.28
2022-11-09T16:05:16.172Z,13.18
2022-11-09T16:07:54.002Z,13.05
2022-11-09T16:10:23.411Z,13.01
2022-11-09T16:12:53.369Z,13.01
2022-11-09T16:15:20.459Z,12.98
2022-11-09T16:17:49.863Z,12.95
2022-11-09T16:20:17.946Z,12.89
2022-11-09T16:22:45.025Z,12.85
2022-11-09T16:25:12.388Z,12.75
2022-11-09T16:27:55.035Z,12.70
2022-11-09T16:30:22.059Z,12.75
2022-11-09T16:32:48.720Z,12.66
2022-11-09T16:35:30.705Z,12.49
2022-11-09T16:37:58.191Z,12.35
2022-11-09T16:40:26.037Z,12.39
2022-11-09T16:42:52.683Z,12.35
2022-11-09T16:45:19.970Z,12.18
2022-11-09T16:47:50.586Z,12.12
2022-11-09T16:50:17.739Z,12.17
2022-11-09T16:52:45.043Z,12.22
2022-11-09T16:55:11.942Z,12.19
2022-11-09T16:57:38.568Z,12.33
2022-11-09T17:00:07.310Z,12.37
2022-11-09T17:02:34.356Z,12.36
2022-11-09T17:05:01.017Z,12.36
2022-11-09T17:07:28.067Z,12.42
2022-11-09T17:09:54.774Z,12.46
2022-11-09T17:12:21.414Z,12.43
2022-11-09T17:14:47.959Z,12.40
2022-11-09T17:17:21.193Z,12.37
2022-11-09T17:19:49.288Z,12.35
2022-11-09T17:22:16.358Z,12.36
2022-11-09T17:24:43.039Z,12.38
2022-11-09T17:27:10.993Z,12.35
2022-11-09T17:29:37.965Z,12.33
2022-11-09T17:32:07.357Z,12.50
2022-11-09T17:34:34.261Z,12.50
2022-11-09T17:37:05.588Z,12.66
2022-11-09T17:39:33.300Z,12.84
2022-11-09T17:42:00.184Z,12.88
2022-11-09T17:44:26.897Z,12.94
2022-11-09T17:46:53.628Z,12.99
2022-11-09T17:49:20.218Z,13.08
2022-11-09T17:51:46.889Z,13.09
2022-11-09T17:54:15.188Z,13.12
2022-11-09T17:56:42.160Z,13.16
2022-11-09T17:59:09.140Z,13.16
2022-11-09T18:01:41.078Z,13.24
2022-11-09T18:04:10.806Z,13.21
2022-11-09T18:06:38.443Z,13.15
2022-11-09T18:11:52.766Z,13.17
2022-11-09T18:14:19.686Z,13.25
2022-11-09T18:16:46.556Z,13.28
2022-11-09T18:19:13.321Z,13.22
2022-11-09T18:21:39.970Z,13.28
2022-11-09T18:24:07.081Z,13.26
2022-11-09T18:26:34.394Z,13.20
2022-11-09T18:29:01.048Z,13.23
2022-11-09T18:31:27.699Z,13.33
2022-11-09T18:33:54.388Z,13.33
2022-11-09T18:36:21.802Z,13.29
2022-11-09T18:38:51.264Z,13.29
2022-11-09T18:41:20.816Z,13.27
2022-11-09T18:43:48.392Z,13.23
2022-11-09T18:46:17.017Z,13.22
2022-11-09T18:48:44.646Z,13.17
2022-11-09T18:51:11.804Z,13.21
2022-11-09T18:53:41.034Z,13.23
2022-11-09T18:56:18.491Z,13.31
2022-11-09T18:58:46.194Z,13.17
2022-11-09T19:01:13.208Z,13.08
2022-11-09T19:03:40.243Z,13.07
2022-11-09T19:06:18.222Z,13.10
2022-11-09T19:09:04.345Z,13.08
2022-11-09T19:11:32.046Z,13.15
2022-11-09T19:13:59.065Z,13.24
2022-11-09T19:16:26.662Z,13.17
2022-11-09T19:18:53.734Z,13.15
2022-11-09T19:21:35.863Z,13.06
2022-11-09T19:24:03.400Z,12.99
2022-11-09T19:26:30.447Z,13.07
2022-11-09T19:28:57.037Z,12.97
2022-11-09T19:31:24.731Z,13.11
2022-11-09T19:33:54.505Z,12.98
2022-11-09T19:36:30.386Z,13.07
2022-11-09T19:38:57.761Z,13.07
2022-11-09T19:41:25.505Z,13.08
2022-11-09T19:43:54.877Z,13.00
2022-11-09T19:46:21.889Z,12.97
2022-11-09T19:48:48.719Z,12.99
2022-11-09T19:51:17.267Z,12.95
2022-11-09T19:53:50.374Z,13.06
2022-11-09T19:56:18.362Z,12.95
2022-11-09T19:58:49.365Z,12.96
2022-11-09T20:01:16.398Z,12.93
2022-11-09T20:03:43.217Z,12.84
2022-11-09T20:06:09.939Z,12.79
2022-11-09T20:08:37.920Z,12.78
2022-11-09T20:11:09.643Z,12.87
2022-11-09T20:13:38.821Z,12.80
2022-11-09T20:16:08.140Z,12.77
2022-11-09T20:18:36.450Z,12.79
2022-11-09T20:21:04.229Z,12.72
2022-11-09T20:23:30.832Z,12.77
2022-11-09T20:26:08.361Z,12.74
2022-11-09T20:28:35.561Z,12.79
2022-11-09T20:31:09.050Z,12.72
2022-11-09T20:33:35.590Z,12.70
2022-11-09T20:36:02.278Z,12.70
2022-11-09T20:38:29.455Z,12.68
2022-11-09T20:40:57.884Z,12.67
2022-11-09T20:43:25.979Z,12.72
2022-11-09T20:45:53.233Z,12.66
2022-11-09T20:48:46.964Z,12.58
2022-11-09T20:51:09.092Z,12.54
2022-11-09T20:53:36.476Z,12.55
2022-11-09T20:56:03.734Z,12.57
2022-11-09T20:58:30.439Z,12.61
2022-11-09T21:01:09.130Z,12.61
2022-11-09T21:03:35.840Z,12.51
2022-11-09T21:06:05.098Z,12.56
2022-11-09T21:08:33.410Z,12.53
2022-11-09T21:11:01.708Z,12.50
2022-11-09T21:13:28.841Z,12.42
2022-11-09T21:15:55.430Z,12.47
2022-11-09T21:18:22.586Z,12.30
2022-11-09T21:20:49.475Z,12.30
2022-11-09T21:23:16.081Z,12.35
2022-11-09T21:26:02.621Z,12.32
2022-11-09T21:28:48.192Z,12.28
2022-11-09T21:31:15.069Z,12.24
2022-11-09T21:33:41.668Z,12.28
2022-11-09T21:36:13.400Z,12.21
2022-11-09T21:38:40.337Z,12.06
2022-11-09T21:41:27.409Z,12.10
2022-11-09T21:43:55.124Z,12.06
2022-11-09T21:46:22.994Z,12.19
2022-11-09T21:48:50.505Z,12.14
2022-11-09T21:51:17.746Z,12.04
2022-11-09T21:53:44.357Z,12.01
2022-11-09T21:56:11.357Z,12.01
2022-11-09T21:58:37.928Z,12.01
2022-11-09T22:01:10.719Z,12.01
2022-11-09T22:03:38.183Z,11.91
2022-11-09T22:06:05.301Z,11.94
2022-11-09T22:08:31.802Z,11.90
2022-11-09T22:11:06.825Z,11.91
2022-11-09T22:13:52.751Z,11.92
2022-11-09T22:16:20.737Z,11.92
2022-11-09T22:19:06.176Z,11.83
2022-11-09T22:21:33.173Z,11.87
2022-11-09T22:24:00.741Z,11.85
2022-11-09T22:26:28.983Z,11.70
2022-11-09T22:28:57.223Z,11.64
2022-11-09T22:31:24.493Z,11.62
2022-11-09T22:33:51.582Z,11.69
2022-11-09T22:36:18.702Z,11.64
2022-11-09T22:38:46.549Z,11.48
2022-11-09T22:41:14.776Z,11.42
2022-11-09T22:43:42.906Z,11.34
2022-11-09T22:46:17.249Z,11.40
2022-11-09T22:48:44.604Z,11.32
2022-11-09T22:51:16.357Z,11.31
2022-11-09T22:53:43.024Z,11.27
2022-11-09T22:56:11.158Z,11.30
2022-11-09T22:58:37.853Z,11.30
2022-11-09T23:01:16.179Z,11.38
2022-11-09T23:03:42.985Z,11.38
2022-11-09T23:06:20.892Z,11.31
2022-11-09T23:08:47.940Z,11.21
2022-11-09T23:11:20.681Z,11.29
2022-11-09T23:13:52.029Z,11.13
2022-11-09T23:16:19.123Z,11.09
2022-11-09T23:18:55.093Z,11.05
2022-11-09T23:21:31.345Z,11.10
2022-11-09T23:24:02.468Z,11.15
2022-11-09T23:26:29.691Z,11.09
2022-11-09T23:28:56.894Z,11.23
2022-11-09T23:31:24.856Z,11.21
2022-11-09T23:33:54.568Z,11.12
2022-11-09T23:36:22.786Z,11.13
2022-11-09T23:38:49.747Z,11.15
2022-11-09T23:41:17.006Z,11.09
2022-11-09T23:43:48.737Z,11.11
2022-11-09T23:46:16.557Z,11.10
2022-11-09T23:48:43.445Z,11.16
2022-11-09T23:51:10.419Z,11.17
2022-11-09T23:53:37.295Z,11.14
2022-11-09T23:56:09.171Z,11.18
2022-11-09T23:58:36.683Z,11.20
